sensor_id;sensor_type;location;lat;lon;timestamp;P1;durP1;ratioP1;P2;durP2;ratioP2
41323;SDS011;27073;51.128;4.220;2023-05-02T00:01:57;42.83;;;31.23;;
41323;SDS011;27073;51.128;4.220;2023-05-02T00:04:22;43.28;;;31.98;;
41323;SDS011;27073;51.128;4.220;2023-05-02T00:06:50;51.35;;;33.40;;
41323;SDS011;27073;51.128;4.220;2023-05-02T00:09:17;51.20;;;33.72;;
41323;SDS011;27073;51.128;4.220;2023-05-02T00:11:43;46.88;;;35.38;;
41323;SDS011;27073;51.128;4.220;2023-05-02T00:14:08;48.10;;;34.78;;
41323;SDS011;27073;51.128;4.220;2023-05-02T00:16:34;48.60;;;33.95;;
41323;SDS011;27073;51.128;4.220;2023-05-02T00:19:00;43.80;;;34.42;;
41323;SDS011;27073;51.128;4.220;2023-05-02T00:21:26;44.38;;;34.10;;
41323;SDS011;27073;51.128;4.220;2023-05-02T00:23:54;51.47;;;35.28;;
41323;SDS011;27073;51.128;4.220;2023-05-02T00:26:21;46.40;;;34.17;;
41323;SDS011;27073;51.128;4.220;2023-05-02T00:28:48;47.35;;;34.42;;
41323;SDS011;27073;51.128;4.220;2023-05-02T00:31:14;48.50;;;33.60;;
41323;SDS011;27073;51.128;4.220;2023-05-02T00:33:40;45.63;;;34.92;;
41323;SDS011;27073;51.128;4.220;2023-05-02T00:36:13;45.25;;;34.90;;
41323;SDS011;27073;51.128;4.220;2023-05-02T00:38:39;49.25;;;35.35;;
41323;SDS011;27073;51.128;4.220;2023-05-02T00:41:05;51.63;;;35.42;;
41323;SDS011;27073;51.128;4.220;2023-05-02T00:43:31;51.00;;;36.03;;
41323;SDS011;27073;51.128;4.220;2023-05-02T00:45:57;47.78;;;34.38;;
41323;SDS011;27073;51.128;4.220;2023-05-02T00:48:23;46.20;;;34.92;;
41323;SDS011;27073;51.128;4.220;2023-05-02T00:50:49;45.90;;;34.42;;
41323;SDS011;27073;51.128;4.220;2023-05-02T00:53:16;47.22;;;35.25;;
41323;SDS011;27073;51.128;4.220;2023-05-02T00:55:42;46.95;;;34.95;;
41323;SDS011;27073;51.128;4.220;2023-05-02T00:58:13;47.20;;;35.45;;
41323;SDS011;27073;51.128;4.220;2023-05-02T01:03:20;49.80;;;34.92;;
41323;SDS011;27073;51.128;4.220;2023-05-02T01:08:46;48.80;;;34.75;;
41323;SDS011;27073;51.128;4.220;2023-05-02T01:12:13;46.55;;;34.70;;
41323;SDS011;27073;51.128;4.220;2023-05-02T01:14:12;46.47;;;34.30;;
41323;SDS011;27073;51.128;4.220;2023-05-02T01:16:40;48.38;;;35.40;;
41323;SDS011;27073;51.128;4.220;2023-05-02T01:19:11;44.90;;;35.05;;
41323;SDS011;27073;51.128;4.220;2023-05-02T01:21:43;50.80;;;35.78;;
41323;SDS011;27073;51.128;4.220;2023-05-02T01:24:16;48.88;;;35.10;;
41323;SDS011;27073;51.128;4.220;2023-05-02T01:27:00;45.85;;;34.65;;
41323;SDS011;27073;51.128;4.220;2023-05-02T01:29:39;45.03;;;34.38;;
41323;SDS011;27073;51.128;4.220;2023-05-02T01:32:06;47.75;;;35.42;;
41323;SDS011;27073;51.128;4.220;2023-05-02T01:34:34;46.00;;;34.58;;
41323;SDS011;27073;51.128;4.220;2023-05-02T01:37:02;44.10;;;34.08;;
41323;SDS011;27073;51.128;4.220;2023-05-02T01:39:31;46.95;;;34.58;;
41323;SDS011;27073;51.128;4.220;2023-05-02T01:42:00;46.00;;;34.78;;
41323;SDS011;27073;51.128;4.220;2023-05-02T01:44:27;49.13;;;37.13;;
41323;SDS011;27073;51.128;4.220;2023-05-02T01:46:55;47.22;;;34.55;;
41323;SDS011;27073;51.128;4.220;2023-05-02T01:49:22;47.28;;;34.15;;
41323;SDS011;27073;51.128;4.220;2023-05-02T01:51:50;43.65;;;32.30;;
41323;SDS011;27073;51.128;4.220;2023-05-02T01:54:17;43.70;;;31.90;;
41323;SDS011;27073;51.128;4.220;2023-05-02T01:56:45;43.58;;;31.55;;
41323;SDS011;27073;51.128;4.220;2023-05-02T01:59:14;48.33;;;33.70;;
41323;SDS011;27073;51.128;4.220;2023-05-02T02:01:43;43.95;;;33.35;;
41323;SDS011;27073;51.128;4.220;2023-05-02T02:04:10;47.42;;;33.38;;
41323;SDS011;27073;51.128;4.220;2023-05-02T02:06:38;46.17;;;32.00;;
41323;SDS011;27073;51.128;4.220;2023-05-02T02:09:09;45.38;;;31.00;;
41323;SDS011;27073;51.128;4.220;2023-05-02T02:11:36;43.17;;;31.90;;
41323;SDS011;27073;51.128;4.220;2023-05-02T02:14:11;46.97;;;31.35;;
41323;SDS011;27073;51.128;4.220;2023-05-02T02:16:46;50.33;;;32.97;;
41323;SDS011;27073;51.128;4.220;2023-05-02T02:19:15;44.53;;;32.13;;
41323;SDS011;27073;51.128;4.220;2023-05-02T02:21:42;42.97;;;31.05;;
41323;SDS011;27073;51.128;4.220;2023-05-02T02:24:11;49.30;;;34.20;;
41323;SDS011;27073;51.128;4.220;2023-05-02T02:26:38;43.45;;;31.77;;
41323;SDS011;27073;51.128;4.220;2023-05-02T02:29:04;41.45;;;32.35;;
41323;SDS011;27073;51.128;4.220;2023-05-02T02:31:33;48.45;;;33.20;;
41323;SDS011;27073;51.128;4.220;2023-05-02T02:34:00;51.30;;;35.28;;
41323;SDS011;27073;51.128;4.220;2023-05-02T02:38:54;50.22;;;35.55;;
41323;SDS011;27073;51.128;4.220;2023-05-02T02:41:32;46.63;;;34.53;;
41323;SDS011;27073;51.128;4.220;2023-05-02T02:50:01;52.65;;;35.47;;
41323;SDS011;27073;51.128;4.220;2023-05-02T02:55:26;53.97;;;38.40;;
41323;SDS011;27073;51.128;4.220;2023-05-02T02:58:14;55.85;;;37.13;;
41323;SDS011;27073;51.128;4.220;2023-05-02T03:00:59;52.75;;;36.38;;
41323;SDS011;27073;51.128;4.220;2023-05-02T03:03:29;55.10;;;38.45;;
41323;SDS011;27073;51.128;4.220;2023-05-02T03:05:57;57.85;;;39.20;;
41323;SDS011;27073;51.128;4.220;2023-05-02T03:08:23;55.03;;;37.92;;
41323;SDS011;27073;51.128;4.220;2023-05-02T03:10:50;55.28;;;37.65;;
41323;SDS011;27073;51.128;4.220;2023-05-02T03:13:16;55.17;;;38.72;;
41323;SDS011;27073;51.128;4.220;2023-05-02T03:16:00;55.63;;;38.45;;
41323;SDS011;27073;51.128;4.220;2023-05-02T03:18:52;50.22;;;37.08;;
41323;SDS011;27073;51.128;4.220;2023-05-02T03:21:18;51.97;;;37.63;;
41323;SDS011;27073;51.128;4.220;2023-05-02T03:23:44;52.70;;;37.20;;
41323;SDS011;27073;51.128;4.220;2023-05-02T03:26:10;50.38;;;35.90;;
41323;SDS011;27073;51.128;4.220;2023-05-02T03:28:36;55.88;;;37.47;;
41323;SDS011;27073;51.128;4.220;2023-05-02T03:31:03;54.45;;;36.72;;
41323;SDS011;27073;51.128;4.220;2023-05-02T03:33:35;54.60;;;36.38;;
41323;SDS011;27073;51.128;4.220;2023-05-02T03:36:01;53.38;;;36.25;;
41323;SDS011;27073;51.128;4.220;2023-05-02T03:38:28;53.53;;;36.45;;
41323;SDS011;27073;51.128;4.220;2023-05-02T03:40:56;55.13;;;35.55;;
41323;SDS011;27073;51.128;4.220;2023-05-02T03:43:23;51.20;;;34.55;;
41323;SDS011;27073;51.128;4.220;2023-05-02T03:45:49;49.65;;;34.70;;
41323;SDS011;27073;51.128;4.220;2023-05-02T03:48:15;46.78;;;35.72;;
41323;SDS011;27073;51.128;4.220;2023-05-02T03:50:41;46.08;;;33.58;;
41323;SDS011;27073;51.128;4.220;2023-05-02T03:53:08;42.65;;;31.98;;
41323;SDS011;27073;51.128;4.220;2023-05-02T03:55:43;49.75;;;32.88;;
41323;SDS011;27073;51.128;4.220;2023-05-02T03:58:16;51.35;;;33.53;;
41323;SDS011;27073;51.128;4.220;2023-05-02T04:00:44;45.13;;;30.85;;
41323;SDS011;27073;51.128;4.220;2023-05-02T04:03:10;43.80;;;29.92;;
41323;SDS011;27073;51.128;4.220;2023-05-02T04:05:40;48.67;;;30.67;;
41323;SDS011;27073;51.128;4.220;2023-05-02T04:08:06;42.60;;;29.25;;
41323;SDS011;27073;51.128;4.220;2023-05-02T04:10:32;37.47;;;27.88;;
41323;SDS011;27073;51.128;4.220;2023-05-02T04:13:00;35.78;;;25.27;;
41323;SDS011;27073;51.128;4.220;2023-05-02T04:15:29;31.95;;;24.75;;
41323;SDS011;27073;51.128;4.220;2023-05-02T04:17:59;36.65;;;24.13;;
41323;SDS011;27073;51.128;4.220;2023-05-02T04:20:25;36.72;;;23.38;;
41323;SDS011;27073;51.128;4.220;2023-05-02T04:22:54;32.92;;;21.58;;
41323;SDS011;27073;51.128;4.220;2023-05-02T04:25:19;28.95;;;21.50;;
41323;SDS011;27073;51.128;4.220;2023-05-02T04:27:45;27.83;;;21.08;;
41323;SDS011;27073;51.128;4.220;2023-05-02T04:30:14;32.03;;;22.38;;
41323;SDS011;27073;51.128;4.220;2023-05-02T04:32:45;33.33;;;21.70;;
41323;SDS011;27073;51.128;4.220;2023-05-02T04:35:11;26.55;;;20.65;;
41323;SDS011;27073;51.128;4.220;2023-05-02T04:37:37;27.95;;;19.08;;
41323;SDS011;27073;51.128;4.220;2023-05-02T04:40:04;26.15;;;18.58;;
41323;SDS011;27073;51.128;4.220;2023-05-02T04:42:30;24.80;;;17.45;;
41323;SDS011;27073;51.128;4.220;2023-05-02T04:45:12;25.40;;;17.33;;
41323;SDS011;27073;51.128;4.220;2023-05-02T04:47:41;26.52;;;17.83;;
41323;SDS011;27073;51.128;4.220;2023-05-02T04:50:07;26.92;;;17.38;;
41323;SDS011;27073;51.128;4.220;2023-05-02T04:52:34;23.42;;;17.38;;
41323;SDS011;27073;51.128;4.220;2023-05-02T04:55:00;20.20;;;14.38;;
41323;SDS011;27073;51.128;4.220;2023-05-02T04:57:26;22.02;;;14.77;;
41323;SDS011;27073;51.128;4.220;2023-05-02T04:59:56;23.10;;;14.87;;
41323;SDS011;27073;51.128;4.220;2023-05-02T05:02:22;20.27;;;13.95;;
41323;SDS011;27073;51.128;4.220;2023-05-02T05:04:48;19.23;;;13.75;;
41323;SDS011;27073;51.128;4.220;2023-05-02T05:07:14;16.58;;;12.63;;
41323;SDS011;27073;51.128;4.220;2023-05-02T05:09:43;15.23;;;11.35;;
41323;SDS011;27073;51.128;4.220;2023-05-02T05:12:10;16.98;;;11.88;;
41323;SDS011;27073;51.128;4.220;2023-05-02T05:14:36;19.00;;;12.65;;
41323;SDS011;27073;51.128;4.220;2023-05-02T05:17:02;18.05;;;11.43;;
41323;SDS011;27073;51.128;4.220;2023-05-02T05:19:28;18.30;;;13.02;;
41323;SDS011;27073;51.128;4.220;2023-05-02T05:21:55;16.33;;;11.88;;
41323;SDS011;27073;51.128;4.220;2023-05-02T05:24:21;18.50;;;12.45;;
41323;SDS011;27073;51.128;4.220;2023-05-02T05:26:49;19.10;;;11.98;;
41323;SDS011;27073;51.128;4.220;2023-05-02T05:29:15;17.48;;;10.75;;
41323;SDS011;27073;51.128;4.220;2023-05-02T05:31:43;13.60;;;9.65;;
41323;SDS011;27073;51.128;4.220;2023-05-02T05:34:12;14.80;;;10.40;;
41323;SDS011;27073;51.128;4.220;2023-05-02T05:36:39;14.07;;;9.93;;
41323;SDS011;27073;51.128;4.220;2023-05-02T05:39:05;13.88;;;10.45;;
41323;SDS011;27073;51.128;4.220;2023-05-02T05:41:33;14.63;;;8.77;;
41323;SDS011;27073;51.128;4.220;2023-05-02T05:44:03;16.15;;;8.50;;
41323;SDS011;27073;51.128;4.220;2023-05-02T05:46:30;12.40;;;7.80;;
41323;SDS011;27073;51.128;4.220;2023-05-02T05:48:56;14.60;;;8.27;;
41323;SDS011;27073;51.128;4.220;2023-05-02T05:51:23;12.85;;;7.50;;
41323;SDS011;27073;51.128;4.220;2023-05-02T05:53:48;10.82;;;7.47;;
41323;SDS011;27073;51.128;4.220;2023-05-02T05:56:15;14.25;;;6.93;;
41323;SDS011;27073;51.128;4.220;2023-05-02T05:58:57;12.38;;;7.25;;
41323;SDS011;27073;51.128;4.220;2023-05-02T06:01:23;13.35;;;7.05;;
41323;SDS011;27073;51.128;4.220;2023-05-02T06:03:49;10.50;;;6.13;;
41323;SDS011;27073;51.128;4.220;2023-05-02T06:06:16;12.95;;;6.07;;
41323;SDS011;27073;51.128;4.220;2023-05-02T06:08:42;11.10;;;6.43;;
41323;SDS011;27073;51.128;4.220;2023-05-02T06:11:08;12.57;;;6.85;;
41323;SDS011;27073;51.128;4.220;2023-05-02T06:13:36;12.05;;;6.03;;
41323;SDS011;27073;51.128;4.220;2023-05-02T06:16:02;10.63;;;5.93;;
41323;SDS011;27073;51.128;4.220;2023-05-02T06:18:29;12.93;;;6.43;;
41323;SDS011;27073;51.128;4.220;2023-05-02T06:20:54;11.77;;;5.90;;
41323;SDS011;27073;51.128;4.220;2023-05-02T06:23:20;13.15;;;5.60;;
41323;SDS011;27073;51.128;4.220;2023-05-02T06:25:46;8.35;;;5.07;;
41323;SDS011;27073;51.128;4.220;2023-05-02T06:28:12;10.50;;;5.82;;
41323;SDS011;27073;51.128;4.220;2023-05-02T06:30:37;11.10;;;5.43;;
41323;SDS011;27073;51.128;4.220;2023-05-02T06:33:03;10.50;;;4.72;;
41323;SDS011;27073;51.128;4.220;2023-05-02T06:35:29;11.27;;;5.43;;
41323;SDS011;27073;51.128;4.220;2023-05-02T06:37:55;10.38;;;4.65;;
41323;SDS011;27073;51.128;4.220;2023-05-02T06:40:21;9.45;;;4.38;;
41323;SDS011;27073;51.128;4.220;2023-05-02T06:42:47;12.02;;;5.47;;
41323;SDS011;27073;51.128;4.220;2023-05-02T06:45:12;8.88;;;4.80;;
41323;SDS011;27073;51.128;4.220;2023-05-02T06:47:38;7.82;;;4.72;;
41323;SDS011;27073;51.128;4.220;2023-05-02T06:50:04;12.27;;;4.88;;
41323;SDS011;27073;51.128;4.220;2023-05-02T06:52:31;9.00;;;4.07;;
41323;SDS011;27073;51.128;4.220;2023-05-02T06:54:56;11.30;;;4.63;;
41323;SDS011;27073;51.128;4.220;2023-05-02T06:57:23;8.27;;;4.32;;
41323;SDS011;27073;51.128;4.220;2023-05-02T06:59:49;9.20;;;5.03;;
41323;SDS011;27073;51.128;4.220;2023-05-02T07:02:14;9.27;;;4.25;;
41323;SDS011;27073;51.128;4.220;2023-05-02T07:04:40;10.82;;;4.20;;
41323;SDS011;27073;51.128;4.220;2023-05-02T07:07:06;7.60;;;4.43;;
41323;SDS011;27073;51.128;4.220;2023-05-02T07:09:31;14.15;;;4.13;;
41323;SDS011;27073;51.128;4.220;2023-05-02T07:11:57;9.18;;;4.35;;
41323;SDS011;27073;51.128;4.220;2023-05-02T07:14:23;8.02;;;3.45;;
41323;SDS011;27073;51.128;4.220;2023-05-02T07:16:48;9.63;;;4.00;;
41323;SDS011;27073;51.128;4.220;2023-05-02T07:19:14;10.65;;;3.83;;
41323;SDS011;27073;51.128;4.220;2023-05-02T07:21:40;11.23;;;4.55;;
41323;SDS011;27073;51.128;4.220;2023-05-02T07:24:06;12.27;;;4.70;;
41323;SDS011;27073;51.128;4.220;2023-05-02T07:26:32;10.82;;;4.75;;
41323;SDS011;27073;51.128;4.220;2023-05-02T07:28:57;10.52;;;4.97;;
41323;SDS011;27073;51.128;4.220;2023-05-02T07:31:23;7.75;;;4.57;;
41323;SDS011;27073;51.128;4.220;2023-05-02T07:33:49;9.77;;;4.85;;
41323;SDS011;27073;51.128;4.220;2023-05-02T07:36:15;12.35;;;5.00;;
41323;SDS011;27073;51.128;4.220;2023-05-02T07:38:42;8.68;;;5.07;;
41323;SDS011;27073;51.128;4.220;2023-05-02T07:41:07;12.57;;;6.65;;
41323;SDS011;27073;51.128;4.220;2023-05-02T07:43:33;14.40;;;6.50;;
41323;SDS011;27073;51.128;4.220;2023-05-02T07:46:02;13.90;;;7.22;;
41323;SDS011;27073;51.128;4.220;2023-05-02T07:48:29;12.30;;;8.73;;
41323;SDS011;27073;51.128;4.220;2023-05-02T07:50:55;14.63;;;8.23;;
41323;SDS011;27073;51.128;4.220;2023-05-02T07:53:23;16.20;;;9.35;;
41323;SDS011;27073;51.128;4.220;2023-05-02T07:55:48;12.65;;;8.95;;
41323;SDS011;27073;51.128;4.220;2023-05-02T07:58:14;13.48;;;8.70;;
41323;SDS011;27073;51.128;4.220;2023-05-02T08:00:40;13.10;;;8.38;;
41323;SDS011;27073;51.128;4.220;2023-05-02T08:03:06;12.52;;;8.13;;
41323;SDS011;27073;51.128;4.220;2023-05-02T08:05:32;13.00;;;7.80;;
41323;SDS011;27073;51.128;4.220;2023-05-02T08:07:57;13.75;;;7.38;;
41323;SDS011;27073;51.128;4.220;2023-05-02T08:10:25;19.30;;;5.18;;
41323;SDS011;27073;51.128;4.220;2023-05-02T08:12:51;10.00;;;5.68;;
41323;SDS011;27073;51.128;4.220;2023-05-02T08:15:18;16.95;;;5.85;;
41323;SDS011;27073;51.128;4.220;2023-05-02T08:17:43;10.05;;;5.53;;
41323;SDS011;27073;51.128;4.220;2023-05-02T08:20:09;13.02;;;5.43;;
41323;SDS011;27073;51.128;4.220;2023-05-02T08:22:35;8.45;;;5.13;;
41323;SDS011;27073;51.128;4.220;2023-05-02T08:25:01;7.60;;;4.55;;
41323;SDS011;27073;51.128;4.220;2023-05-02T08:27:26;10.95;;;3.97;;
41323;SDS011;27073;51.128;4.220;2023-05-02T08:29:52;7.22;;;3.97;;
41323;SDS011;27073;51.128;4.220;2023-05-02T08:32:18;10.90;;;3.63;;
41323;SDS011;27073;51.128;4.220;2023-05-02T08:34:43;10.30;;;3.42;;
41323;SDS011;27073;51.128;4.220;2023-05-02T08:37:09;7.80;;;2.83;;
41323;SDS011;27073;51.128;4.220;2023-05-02T08:39:36;9.15;;;3.70;;
41323;SDS011;27073;51.128;4.220;2023-05-02T08:42:05;8.07;;;3.40;;
41323;SDS011;27073;51.128;4.220;2023-05-02T08:44:31;6.80;;;2.80;;
41323;SDS011;27073;51.128;4.220;2023-05-02T08:46:57;5.50;;;2.33;;
41323;SDS011;27073;51.128;4.220;2023-05-02T08:49:27;10.87;;;3.20;;
41323;SDS011;27073;51.128;4.220;2023-05-02T08:51:56;12.63;;;3.67;;
41323;SDS011;27073;51.128;4.220;2023-05-02T08:54:26;7.05;;;3.70;;
41323;SDS011;27073;51.128;4.220;2023-05-02T08:56:53;9.65;;;5.20;;
41323;SDS011;27073;51.128;4.220;2023-05-02T08:59:19;9.50;;;3.80;;
41323;SDS011;27073;51.128;4.220;2023-05-02T09:01:44;11.05;;;4.25;;
41323;SDS011;27073;51.128;4.220;2023-05-02T09:04:13;9.38;;;3.33;;
41323;SDS011;27073;51.128;4.220;2023-05-02T09:06:39;15.13;;;4.80;;
41323;SDS011;27073;51.128;4.220;2023-05-02T09:09:05;10.30;;;4.70;;
41323;SDS011;27073;51.128;4.220;2023-05-02T09:11:32;13.55;;;5.80;;
41323;SDS011;27073;51.128;4.220;2023-05-02T09:13:58;13.63;;;5.78;;
41323;SDS011;27073;51.128;4.220;2023-05-02T09:16:30;10.57;;;5.75;;
41323;SDS011;27073;51.128;4.220;2023-05-02T09:19:03;13.05;;;6.45;;
41323;SDS011;27073;51.128;4.220;2023-05-02T09:21:36;13.82;;;6.03;;
41323;SDS011;27073;51.128;4.220;2023-05-02T09:24:17;14.85;;;5.45;;
41323;SDS011;27073;51.128;4.220;2023-05-02T09:27:01;9.30;;;5.03;;
41323;SDS011;27073;51.128;4.220;2023-05-02T09:29:28;13.02;;;5.18;;
41323;SDS011;27073;51.128;4.220;2023-05-02T09:31:59;11.63;;;5.72;;
41323;SDS011;27073;51.128;4.220;2023-05-02T09:34:26;10.23;;;4.85;;
41323;SDS011;27073;51.128;4.220;2023-05-02T09:36:52;19.38;;;6.45;;
41323;SDS011;27073;51.128;4.220;2023-05-02T09:41:51;11.93;;;5.03;;
41323;SDS011;27073;51.128;4.220;2023-05-02T09:44:17;17.60;;;5.90;;
41323;SDS011;27073;51.128;4.220;2023-05-02T09:46:45;13.35;;;5.78;;
41323;SDS011;27073;51.128;4.220;2023-05-02T09:49:15;12.77;;;5.05;;
41323;SDS011;27073;51.128;4.220;2023-05-02T09:51:45;12.23;;;5.30;;
41323;SDS011;27073;51.128;4.220;2023-05-02T09:54:53;9.68;;;4.45;;
41323;SDS011;27073;51.128;4.220;2023-05-02T09:57:00;13.55;;;5.18;;
41323;SDS011;27073;51.128;4.220;2023-05-02T09:59:27;11.88;;;4.53;;
41323;SDS011;27073;51.128;4.220;2023-05-02T10:01:57;13.40;;;5.05;;
41323;SDS011;27073;51.128;4.220;2023-05-02T10:04:25;12.20;;;4.00;;
41323;SDS011;27073;51.128;4.220;2023-05-02T10:06:52;13.15;;;4.57;;
41323;SDS011;27073;51.128;4.220;2023-05-02T10:09:19;14.65;;;4.13;;
41323;SDS011;27073;51.128;4.220;2023-05-02T10:11:46;13.88;;;4.88;;
41323;SDS011;27073;51.128;4.220;2023-05-02T10:14:15;14.77;;;4.43;;
41323;SDS011;27073;51.128;4.220;2023-05-02T10:16:52;8.32;;;3.60;;
41323;SDS011;27073;51.128;4.220;2023-05-02T10:19:29;13.05;;;4.40;;
41323;SDS011;27073;51.128;4.220;2023-05-02T10:22:03;8.68;;;4.30;;
41323;SDS011;27073;51.128;4.220;2023-05-02T10:24:31;15.38;;;3.80;;
41323;SDS011;27073;51.128;4.220;2023-05-02T10:26:57;12.65;;;5.05;;
41323;SDS011;27073;51.128;4.220;2023-05-02T10:29:25;11.88;;;4.90;;
41323;SDS011;27073;51.128;4.220;2023-05-02T10:31:56;5.93;;;3.00;;
41323;SDS011;27073;51.128;4.220;2023-05-02T10:34:24;12.98;;;4.38;;
41323;SDS011;27073;51.128;4.220;2023-05-02T10:36:51;10.88;;;4.32;;
41323;SDS011;27073;51.128;4.220;2023-05-02T10:39:19;12.95;;;4.97;;
41323;SDS011;27073;51.128;4.220;2023-05-02T10:41:48;11.13;;;4.40;;
41323;SDS011;27073;51.128;4.220;2023-05-02T10:44:16;10.05;;;4.50;;
41323;SDS011;27073;51.128;4.220;2023-05-02T10:46:43;9.73;;;4.05;;
41323;SDS011;27073;51.128;4.220;2023-05-02T10:49:10;8.95;;;4.30;;
41323;SDS011;27073;51.128;4.220;2023-05-02T10:51:38;11.80;;;3.92;;
41323;SDS011;27073;51.128;4.220;2023-05-02T10:54:23;10.20;;;3.50;;
41323;SDS011;27073;51.128;4.220;2023-05-02T10:59:28;7.38;;;2.13;;
41323;SDS011;27073;51.128;4.220;2023-05-02T11:01:55;7.03;;;2.88;;
41323;SDS011;27073;51.128;4.220;2023-05-02T11:04:22;5.38;;;2.53;;
41323;SDS011;27073;51.128;4.220;2023-05-02T11:11:53;8.50;;;2.60;;
41323;SDS011;27073;51.128;4.220;2023-05-02T11:19:25;7.53;;;3.15;;
41323;SDS011;27073;51.128;4.220;2023-05-02T11:24:43;8.27;;;3.47;;
41323;SDS011;27073;51.128;4.220;2023-05-02T11:30:04;13.75;;;3.28;;
41323;SDS011;27073;51.128;4.220;2023-05-02T11:35:24;11.20;;;4.65;;
41323;SDS011;27073;51.128;4.220;2023-05-02T11:38:00;10.98;;;4.07;;
41323;SDS011;27073;51.128;4.220;2023-05-02T11:40:35;9.85;;;2.95;;
41323;SDS011;27073;51.128;4.220;2023-05-02T11:43:07;6.10;;;2.55;;
41323;SDS011;27073;51.128;4.220;2023-05-02T11:45:40;10.43;;;3.38;;
41323;SDS011;27073;51.128;4.220;2023-05-02T11:48:12;7.82;;;2.33;;
41323;SDS011;27073;51.128;4.220;2023-05-02T11:50:47;6.00;;;2.97;;
41323;SDS011;27073;51.128;4.220;2023-05-02T11:53:13;7.97;;;3.30;;
41323;SDS011;27073;51.128;4.220;2023-05-02T11:55:44;8.27;;;3.10;;
41323;SDS011;27073;51.128;4.220;2023-05-02T11:58:12;11.43;;;2.95;;
41323;SDS011;27073;51.128;4.220;2023-05-02T12:00:44;8.38;;;3.20;;
41323;SDS011;27073;51.128;4.220;2023-05-02T12:03:45;6.05;;;3.08;;
41323;SDS011;27073;51.128;4.220;2023-05-02T12:06:11;7.00;;;2.83;;
41323;SDS011;27073;51.128;4.220;2023-05-02T12:08:38;7.28;;;2.28;;
41323;SDS011;27073;51.128;4.220;2023-05-02T12:11:05;8.57;;;2.60;;
41323;SDS011;27073;51.128;4.220;2023-05-02T12:13:31;11.95;;;2.90;;
41323;SDS011;27073;51.128;4.220;2023-05-02T12:15:57;7.97;;;2.70;;
41323;SDS011;27073;51.128;4.220;2023-05-02T12:18:23;5.43;;;2.47;;
41323;SDS011;27073;51.128;4.220;2023-05-02T12:20:51;7.30;;;2.33;;
41323;SDS011;27073;51.128;4.220;2023-05-02T12:23:19;7.10;;;2.92;;
41323;SDS011;27073;51.128;4.220;2023-05-02T12:25:46;8.98;;;2.95;;
41323;SDS011;27073;51.128;4.220;2023-05-02T12:28:13;12.50;;;3.17;;
41323;SDS011;27073;51.128;4.220;2023-05-02T12:30:41;8.65;;;3.75;;
41323;SDS011;27073;51.128;4.220;2023-05-02T12:33:07;15.35;;;4.10;;
41323;SDS011;27073;51.128;4.220;2023-05-02T12:35:33;7.90;;;2.90;;
41323;SDS011;27073;51.128;4.220;2023-05-02T12:38:07;13.25;;;3.45;;
41323;SDS011;27073;51.128;4.220;2023-05-02T12:40:53;10.25;;;3.28;;
41323;SDS011;27073;51.128;4.220;2023-05-02T12:43:22;10.20;;;3.22;;
41323;SDS011;27073;51.128;4.220;2023-05-02T12:45:48;12.65;;;3.05;;
41323;SDS011;27073;51.128;4.220;2023-05-02T12:50:51;9.07;;;3.33;;
41323;SDS011;27073;51.128;4.220;2023-05-02T12:56:03;6.93;;;3.35;;
41323;SDS011;27073;51.128;4.220;2023-05-02T12:58:29;8.48;;;2.92;;
41323;SDS011;27073;51.128;4.220;2023-05-02T13:01:04;8.07;;;3.17;;
41323;SDS011;27073;51.128;4.220;2023-05-02T13:03:32;10.05;;;2.38;;
41323;SDS011;27073;51.128;4.220;2023-05-02T13:05:57;6.57;;;2.45;;
41323;SDS011;27073;51.128;4.220;2023-05-02T13:08:23;5.75;;;2.60;;
41323;SDS011;27073;51.128;4.220;2023-05-02T13:10:49;8.20;;;2.30;;
41323;SDS011;27073;51.128;4.220;2023-05-02T13:13:15;7.65;;;3.03;;
41323;SDS011;27073;51.128;4.220;2023-05-02T13:15:41;7.15;;;2.90;;
41323;SDS011;27073;51.128;4.220;2023-05-02T13:18:07;9.50;;;2.92;;
41323;SDS011;27073;51.128;4.220;2023-05-02T13:20:33;7.00;;;3.17;;
41323;SDS011;27073;51.128;4.220;2023-05-02T13:22:58;8.88;;;4.00;;
41323;SDS011;27073;51.128;4.220;2023-05-02T13:25:24;7.50;;;3.10;;
41323;SDS011;27073;51.128;4.220;2023-05-02T13:27:50;9.32;;;3.08;;
41323;SDS011;27073;51.128;4.220;2023-05-02T13:30:16;7.60;;;3.55;;
41323;SDS011;27073;51.128;4.220;2023-05-02T13:32:42;7.25;;;2.90;;
41323;SDS011;27073;51.128;4.220;2023-05-02T13:35:08;6.68;;;2.60;;
41323;SDS011;27073;51.128;4.220;2023-05-02T13:37:34;7.50;;;2.28;;
41323;SDS011;27073;51.128;4.220;2023-05-02T13:40:00;4.55;;;2.10;;
41323;SDS011;27073;51.128;4.220;2023-05-02T13:42:26;7.97;;;2.90;;
41323;SDS011;27073;51.128;4.220;2023-05-02T13:44:51;9.75;;;2.70;;
41323;SDS011;27073;51.128;4.220;2023-05-02T13:47:17;7.32;;;2.70;;
41323;SDS011;27073;51.128;4.220;2023-05-02T13:49:43;9.93;;;2.85;;
41323;SDS011;27073;51.128;4.220;2023-05-02T13:52:08;8.18;;;2.88;;
41323;SDS011;27073;51.128;4.220;2023-05-02T13:54:34;5.93;;;2.60;;
41323;SDS011;27073;51.128;4.220;2023-05-02T13:57:00;6.80;;;2.95;;
41323;SDS011;27073;51.128;4.220;2023-05-02T13:59:26;10.10;;;3.95;;
41323;SDS011;27073;51.128;4.220;2023-05-02T14:01:52;8.52;;;3.75;;
41323;SDS011;27073;51.128;4.220;2023-05-02T14:04:18;7.32;;;3.00;;
41323;SDS011;27073;51.128;4.220;2023-05-02T14:06:43;7.65;;;2.97;;
41323;SDS011;27073;51.128;4.220;2023-05-02T14:09:09;8.57;;;3.45;;
41323;SDS011;27073;51.128;4.220;2023-05-02T14:11:35;8.05;;;3.38;;
41323;SDS011;27073;51.128;4.220;2023-05-02T14:14:01;9.02;;;3.08;;
41323;SDS011;27073;51.128;4.220;2023-05-02T14:16:26;10.77;;;3.72;;
41323;SDS011;27073;51.128;4.220;2023-05-02T14:18:52;7.75;;;3.13;;
41323;SDS011;27073;51.128;4.220;2023-05-02T14:21:18;11.10;;;3.28;;
41323;SDS011;27073;51.128;4.220;2023-05-02T14:23:43;6.15;;;2.88;;
41323;SDS011;27073;51.128;4.220;2023-05-02T14:26:09;9.82;;;2.85;;
41323;SDS011;27073;51.128;4.220;2023-05-02T14:28:35;8.85;;;3.20;;
41323;SDS011;27073;51.128;4.220;2023-05-02T14:31:01;9.30;;;3.08;;
41323;SDS011;27073;51.128;4.220;2023-05-02T14:33:27;6.82;;;3.00;;
41323;SDS011;27073;51.128;4.220;2023-05-02T14:35:52;9.52;;;3.60;;
41323;SDS011;27073;51.128;4.220;2023-05-02T14:38:18;8.00;;;3.35;;
41323;SDS011;27073;51.128;4.220;2023-05-02T14:40:44;7.72;;;2.92;;
41323;SDS011;27073;51.128;4.220;2023-05-02T14:43:10;7.00;;;2.90;;
41323;SDS011;27073;51.128;4.220;2023-05-02T14:45:36;9.43;;;3.38;;
41323;SDS011;27073;51.128;4.220;2023-05-02T14:48:02;9.55;;;4.10;;
41323;SDS011;27073;51.128;4.220;2023-05-02T14:50:28;7.75;;;3.08;;
41323;SDS011;27073;51.128;4.220;2023-05-02T14:52:53;12.02;;;3.60;;
41323;SDS011;27073;51.128;4.220;2023-05-02T14:55:19;12.32;;;3.50;;
41323;SDS011;27073;51.128;4.220;2023-05-02T14:57:45;9.40;;;3.58;;
41323;SDS011;27073;51.128;4.220;2023-05-02T15:00:11;7.72;;;3.05;;
41323;SDS011;27073;51.128;4.220;2023-05-02T15:02:37;8.73;;;3.00;;
41323;SDS011;27073;51.128;4.220;2023-05-02T15:05:03;5.55;;;2.80;;
41323;SDS011;27073;51.128;4.220;2023-05-02T15:07:32;7.57;;;3.50;;
41323;SDS011;27073;51.128;4.220;2023-05-02T15:09:57;8.88;;;3.40;;
41323;SDS011;27073;51.128;4.220;2023-05-02T15:12:23;6.80;;;3.47;;
41323;SDS011;27073;51.128;4.220;2023-05-02T15:14:50;11.18;;;3.67;;
41323;SDS011;27073;51.128;4.220;2023-05-02T15:17:16;8.38;;;3.45;;
41323;SDS011;27073;51.128;4.220;2023-05-02T15:19:41;9.57;;;3.78;;
41323;SDS011;27073;51.128;4.220;2023-05-02T15:22:07;12.88;;;3.60;;
41323;SDS011;27073;51.128;4.220;2023-05-02T15:24:33;12.48;;;4.53;;